createdAt,value
2022-10-17T00:01:03.534Z,9.07
2022-10-17T00:03:31.260Z,9.07
2022-10-17T00:05:59.007Z,9.19
2022-10-17T00:08:26.440Z,9.10
2022-10-17T00:11:03.292Z,9.03
2022-10-17T00:13:31.064Z,9.07
2022-10-17T00:15:58.986Z,9.05
2022-10-17T00:18:27.033Z,8.95
2022-10-17T00:20:54.492Z,9.00
2022-10-17T00:23:22.243Z,8.87
2022-10-17T00:26:03.846Z,8.96
2022-10-17T00:28:33.353Z,8.99
2022-10-17T00:31:03.939Z,8.95
2022-10-17T00:33:32.214Z,8.93
2022-10-17T00:36:15.800Z,8.97
2022-10-17T00:38:45.348Z,8.91
2022-10-17T00:41:16.326Z,8.92
2022-10-17T00:44:08.215Z,8.97
2022-10-17T00:46:37.920Z,8.94
2022-10-17T00:49:09.835Z,8.88
2022-10-17T00:51:42.412Z,8.81
2022-10-17T00:54:13.903Z,8.83
2022-10-17T00:56:41.950Z,8.74
2022-10-17T00:59:12.435Z,8.84
2022-10-17T01:01:42.000Z,8.90
2022-10-17T01:04:10.976Z,8.78
2022-10-17T01:06:40.235Z,8.66
2022-10-17T01:09:07.809Z,8.76
2022-10-17T01:11:41.683Z,8.72
2022-10-17T01:14:30.307Z,8.79
2022-10-17T01:17:11.911Z,8.77
2022-10-17T01:20:20.192Z,8.78
2022-10-17T01:22:59.193Z,8.77
2022-10-17T01:25:38.251Z,8.66
2022-10-17T01:28:24.261Z,8.62
2022-10-17T01:31:15.992Z,8.65
2022-10-17T01:34:00.361Z,8.53
2022-10-17T01:36:39.984Z,8.60
2022-10-17T01:39:26.958Z,8.58
2022-10-17T01:42:03.606Z,8.55
2022-10-17T01:44:54.157Z,8.59
2022-10-17T01:47:26.926Z,8.64
2022-10-17T01:50:01.649Z,8.58
2022-10-17T01:52:38.800Z,8.63
2022-10-17T01:55:23.681Z,8.60
2022-10-17T01:57:53.121Z,8.60
2022-10-17T02:00:27.670Z,8.60
2022-10-17T02:03:00.251Z,8.69
2022-10-17T02:05:39.117Z,8.62
2022-10-17T02:08:07.219Z,8.56
2022-10-17T02:11:02.365Z,8.47
2022-10-17T02:13:51.436Z,8.42
2022-10-17T02:16:37.344Z,8.26
2022-10-17T02:19:20.045Z,8.17
2022-10-17T02:22:04.289Z,8.23
2022-10-17T02:24:53.080Z,8.33
2022-10-17T02:27:47.907Z,8.22
2022-10-17T02:30:36.723Z,8.07
2022-10-17T02:33:14.452Z,8.18
2022-10-17T02:35:47.503Z,8.23
2022-10-17T02:38:16.497Z,8.29
2022-10-17T02:40:46.029Z,8.03
2022-10-17T02:43:14.932Z,8.17
2022-10-17T02:45:42.445Z,8.09
2022-10-17T02:48:22.510Z,8.23
2022-10-17T02:51:12.418Z,8.19
2022-10-17T02:53:59.041Z,8.04
2022-10-17T02:56:31.053Z,8.04
2022-10-17T02:59:01.271Z,7.97
2022-10-17T03:01:30.977Z,7.99
2022-10-17T03:04:10.122Z,8.15
2022-10-17T03:06:38.669Z,8.21
2022-10-17T03:09:07.152Z,8.01
2022-10-17T03:11:37.232Z,8.07
2022-10-17T03:14:04.907Z,8.02
2022-10-17T03:16:32.754Z,8.01
2022-10-17T03:19:00.505Z,8.17
2022-10-17T03:21:28.150Z,8.32
2022-10-17T03:23:56.594Z,8.13
2022-10-17T03:26:24.861Z,8.16
2022-10-17T03:28:54.490Z,8.15
2022-10-17T03:31:23.479Z,8.04
2022-10-17T03:33:52.650Z,8.09
2022-10-17T03:36:20.459Z,8.03
2022-10-17T03:38:48.505Z,8.02
2022-10-17T03:41:17.964Z,8.00
2022-10-17T03:43:45.463Z,7.96
2022-10-17T03:46:13.233Z,7.95
2022-10-17T03:48:40.852Z,7.91
2022-10-17T03:51:09.653Z,7.93
2022-10-17T03:53:47.975Z,7.79
2022-10-17T03:56:21.861Z,7.88
2022-10-17T03:58:58.147Z,7.74
2022-10-17T04:01:25.770Z,7.80
2022-10-17T04:03:55.112Z,7.83
2022-10-17T04:06:23.388Z,7.86
2022-10-17T04:08:51.187Z,7.55
2022-10-17T04:11:25.744Z,7.69
2022-10-17T04:13:59.316Z,7.61
2022-10-17T04:16:28.505Z,7.62
2022-10-17T04:19:03.204Z,7.60
2022-10-17T04:21:40.512Z,7.69
2022-10-17T04:24:11.213Z,7.78
2022-10-17T04:26:58.922Z,7.79
2022-10-17T04:29:40.899Z,7.73
2022-10-17T04:32:17.184Z,7.75
2022-10-17T04:34:50.189Z,7.71
2022-10-17T04:37:19.062Z,7.75
2022-10-17T04:39:48.078Z,7.63
2022-10-17T04:42:15.594Z,7.78
2022-10-17T04:44:43.175Z,7.82
2022-10-17T04:47:11.071Z,7.77
2022-10-17T04:52:13.108Z,7.72
2022-10-17T04:54:43.715Z,7.67
2022-10-17T04:57:13.971Z,7.57
2022-10-17T04:59:44.485Z,7.58
2022-10-17T05:02:30.775Z,7.53
2022-10-17T05:04:59.474Z,7.65
2022-10-17T05:07:27.028Z,7.55
2022-10-17T05:10:03.731Z,7.63
2022-10-17T05:12:32.883Z,7.70
2022-10-17T05:15:02.022Z,7.83
2022-10-17T05:17:31.573Z,7.80
2022-10-17T05:19:59.140Z,8.06
2022-10-17T05:22:26.992Z,8.12
2022-10-17T05:24:56.071Z,7.96
2022-10-17T05:27:24.343Z,8.07
2022-10-17T05:29:53.791Z,8.00
2022-10-17T05:32:27.839Z,8.02
2022-10-17T05:34:56.134Z,7.98
2022-10-17T05:37:25.932Z,8.09
2022-10-17T05:39:59.451Z,8.29
2022-10-17T05:42:27.845Z,8.27
2022-10-17T05:44:56.828Z,8.28
2022-10-17T05:47:24.501Z,8.50
2022-10-17T05:49:54.412Z,8.52
2022-10-17T05:52:28.301Z,8.67
2022-10-17T05:55:08.794Z,8.80
2022-10-17T05:57:36.375Z,8.93
2022-10-17T06:00:07.786Z,9.05
2022-10-17T06:02:50.818Z,9.25
2022-10-17T06:05:20.756Z,9.54
2022-10-17T06:07:50.203Z,9.67
2022-10-17T06:10:18.973Z,9.91
2022-10-17T06:12:46.780Z,10.16
2022-10-17T06:15:15.648Z,10.34
2022-10-17T06:17:47.565Z,10.55
2022-10-17T06:20:15.244Z,10.84
2022-10-17T06:22:45.496Z,11.06
2022-10-17T06:25:18.865Z,11.32
2022-10-17T06:27:46.571Z,11.43
2022-10-17T06:30:14.244Z,11.64
2022-10-17T06:32:42.003Z,11.63
2022-10-17T06:35:09.615Z,11.95
2022-10-17T06:37:37.859Z,12.19
2022-10-17T06:40:10.544Z,12.41
2022-10-17T06:42:39.559Z,12.43
2022-10-17T06:45:27.431Z,12.84
2022-10-17T06:48:09.577Z,13.07
2022-10-17T06:51:12.766Z,13.36
2022-10-17T06:53:48.668Z,13.62
2022-10-17T06:56:36.754Z,14.05
2022-10-17T06:59:30.031Z,14.38
2022-10-17T07:02:24.278Z,14.58
2022-10-17T07:04:53.399Z,15.10
2022-10-17T07:07:20.996Z,15.66
2022-10-17T07:09:51.525Z,16.85
2022-10-17T08:52:42.815Z,38.68
2022-10-17T09:16:32.586Z,39.36
2022-10-17T09:19:25.189Z,36.62
2022-10-17T09:22:01.747Z,39.65
2022-10-17T09:24:39.322Z,36.91
2022-10-17T09:27:34.103Z,36.96
2022-10-17T09:30:40.139Z,36.07
2022-10-17T09:33:23.351Z,37.49
2022-10-17T09:36:04.365Z,34.92
2022-10-17T09:38:39.817Z,33.14
2022-10-17T09:41:43.063Z,34.66
2022-10-17T09:44:18.524Z,34.31
2022-10-17T09:47:11.480Z,37.21
2022-10-17T09:49:42.239Z,35.32
2022-10-17T09:52:39.619Z,34.22
2022-10-17T09:55:21.087Z,34.11
2022-10-17T09:58:03.813Z,33.89
2022-10-17T10:00:38.059Z,33.24
2022-10-17T10:03:09.518Z,37.24
2022-10-17T10:05:37.169Z,36.07
2022-10-17T10:08:12.733Z,35.68
2022-10-17T10:10:43.742Z,35.48
2022-10-17T10:13:13.922Z,35.02
2022-10-17T10:15:41.452Z,36.92
2022-10-17T10:18:27.188Z,36.88
2022-10-17T10:21:14.758Z,37.14
2022-10-17T10:23:44.579Z,34.66
2022-10-17T10:26:25.821Z,32.45
2022-10-17T10:28:55.990Z,33.87
2022-10-17T10:31:29.375Z,34.60
2022-10-17T10:33:58.727Z,32.57
2022-10-17T10:36:26.415Z,35.11
2022-10-17T10:39:01.297Z,35.65
2022-10-17T10:41:47.499Z,33.47
2022-10-17T10:44:16.203Z,32.67
2022-10-17T10:46:43.661Z,35.68
2022-10-17T10:49:29.831Z,33.63
2022-10-17T10:52:00.555Z,34.93
2022-10-17T10:54:34.269Z,35.42
2022-10-17T10:57:07.309Z,34.14
2022-10-17T10:59:46.580Z,32.48
2022-10-17T11:02:46.104Z,34.65
2022-10-17T11:05:29.012Z,33.18
2022-10-17T11:08:06.045Z,33.85
2022-10-17T11:10:44.510Z,33.40
2022-10-17T11:13:19.088Z,34.13
2022-10-17T11:16:04.769Z,32.66
2022-10-17T11:18:47.524Z,32.58
2022-10-17T11:21:29.279Z,32.28
2022-10-17T11:24:06.872Z,31.65
2022-10-17T11:26:45.184Z,34.83
2022-10-17T11:29:13.799Z,35.39
2022-10-17T11:31:48.601Z,32.93
2022-10-17T11:34:27.438Z,33.60
2022-10-17T11:37:01.265Z,34.23
2022-10-17T11:42:19.936Z,32.77
2022-10-17T11:44:52.438Z,35.17
2022-10-17T11:48:02.956Z,35.20
2022-10-17T11:53:31.191Z,35.18
2022-10-17T11:56:00.930Z,33.70
2022-10-17T11:58:48.271Z,34.66
2022-10-17T12:01:19.277Z,35.67
2022-10-17T12:03:59.569Z,35.39
2022-10-17T12:06:39.205Z,34.84
2022-10-17T12:09:37.184Z,32.81
2022-10-17T12:12:04.883Z,33.89
2022-10-17T12:14:47.484Z,32.24
2022-10-17T12:17:23.327Z,32.34
2022-10-17T12:19:51.395Z,32.83
2022-10-17T12:22:23.151Z,33.89
2022-10-17T12:25:02.651Z,34.37
2022-10-17T12:27:43.723Z,33.77
2022-10-17T12:30:19.693Z,33.27
2022-10-17T12:33:05.682Z,31.40
2022-10-17T12:35:35.833Z,30.36
2022-10-17T12:38:20.319Z,30.33
2022-10-17T12:40:52.965Z,31.33
2022-10-17T12:43:29.501Z,31.41
2022-10-17T12:45:58.565Z,30.53
2022-10-17T12:48:38.414Z,30.91
2022-10-17T12:51:34.658Z,30.59
2022-10-17T12:54:12.763Z,32.00
2022-10-17T12:56:49.458Z,28.72
2022-10-17T12:59:28.514Z,28.38
2022-10-17T13:02:00.763Z,30.07
2022-10-17T13:04:30.629Z,29.85
2022-10-17T13:07:00.693Z,29.93
2022-10-17T13:09:31.508Z,30.43
2022-10-17T13:12:03.164Z,29.79
2022-10-17T13:14:33.291Z,29.39
2022-10-17T13:17:00.771Z,30.46
2022-10-17T13:19:42.922Z,30.47
2022-10-17T13:22:16.569Z,29.09
2022-10-17T13:24:44.296Z,28.18
2022-10-17T13:27:32.655Z,27.70
2022-10-17T13:30:02.567Z,28.17
2022-10-17T13:32:40.775Z,28.54
2022-10-17T13:35:12.266Z,28.08
2022-10-17T13:37:47.346Z,27.41
2022-10-17T13:40:44.603Z,26.85
2022-10-17T13:43:16.073Z,25.18
2022-10-17T13:45:49.683Z,26.26
2022-10-17T13:48:29.958Z,25.97
2022-10-17T13:51:04.484Z,25.20
2022-10-17T13:53:35.257Z,24.81
2022-10-17T13:56:30.115Z,24.72
2022-10-17T13:59:01.463Z,24.51
2022-10-17T14:01:29.658Z,24.14
2022-10-17T14:04:08.342Z,23.83
2022-10-17T14:06:47.686Z,23.68
2022-10-17T14:09:25.431Z,23.43
2022-10-17T14:12:16.584Z,23.63
2022-10-17T14:15:13.007Z,23.65
2022-10-17T14:17:38.558Z,23.14
2022-10-17T14:20:57.175Z,22.99
2022-10-17T14:23:21.413Z,22.49
2022-10-17T14:25:44.551Z,22.60
2022-10-17T14:28:12.598Z,22.45
2022-10-17T14:30:57.164Z,22.47
2022-10-17T14:33:31.362Z,22.33
2022-10-17T14:36:01.598Z,21.97
2022-10-17T14:38:30.168Z,21.88
2022-10-17T14:44:07.048Z,21.84
2022-10-17T14:46:36.649Z,21.88
2022-10-17T14:49:25.092Z,21.74
2022-10-17T14:52:17.732Z,21.51
2022-10-17T14:54:49.747Z,21.64
2022-10-17T14:57:22.037Z,21.72
2022-10-17T14:59:55.202Z,21.40
2022-10-17T15:02:24.983Z,21.39
2022-10-17T15:04:52.976Z,21.24
2022-10-17T15:07:24.120Z,21.01
2022-10-17T15:09:53.990Z,21.09
2022-10-17T15:12:24.784Z,21.05
2022-10-17T15:14:55.741Z,20.86
2022-10-17T15:17:30.540Z,20.86
2022-10-17T15:19:59.033Z,20.55
2022-10-17T15:22:26.852Z,20.51
2022-10-17T15:24:54.399Z,20.55
2022-10-17T15:27:24.103Z,20.45
2022-10-17T15:29:53.079Z,20.25
2022-10-17T15:32:20.731Z,20.25
2022-10-17T15:34:48.238Z,20.10
2022-10-17T15:37:25.633Z,19.81
2022-10-17T15:39:54.908Z,19.31
2022-10-17T15:42:26.803Z,18.85
2022-10-17T15:44:57.961Z,18.49
2022-10-17T15:47:34.105Z,18.20
2022-10-17T15:50:03.167Z,17.89
2022-10-17T15:52:30.840Z,17.60
2022-10-17T15:55:00.955Z,17.48
2022-10-17T15:57:37.983Z,17.20
2022-10-17T16:00:16.358Z,16.96
2022-10-17T16:02:44.996Z,16.68
2022-10-17T16:05:18.703Z,16.49
2022-10-17T16:07:46.851Z,16.34
2022-10-17T16:10:16.167Z,16.12
2022-10-17T16:12:43.797Z,15.71
2022-10-17T16:15:16.910Z,15.74
2022-10-17T16:17:44.963Z,15.58
2022-10-17T16:20:14.101Z,15.44
2022-10-17T16:22:44.143Z,15.26
2022-10-17T16:25:39.342Z,15.13
2022-10-17T16:28:08.497Z,14.94
2022-10-17T16:30:43.020Z,14.66
2022-10-17T16:33:11.212Z,14.59
2022-10-17T16:35:38.881Z,14.55
2022-10-17T16:38:08.000Z,14.55
2022-10-17T16:40:38.688Z,14.40
2022-10-17T16:43:06.595Z,14.27
2022-10-17T16:45:34.164Z,14.20
2022-10-17T16:48:01.652Z,13.71
2022-10-17T16:50:31.210Z,13.73
2022-10-17T16:52:59.083Z,13.67
2022-10-17T16:55:26.743Z,13.60
2022-10-17T16:57:54.163Z,13.56
2022-10-17T17:00:21.684Z,13.36
2022-10-17T17:02:49.364Z,13.29
2022-10-17T17:05:16.918Z,13.13
2022-10-17T17:07:45.450Z,13.13
2022-10-17T17:10:13.065Z,13.01
2022-10-17T17:12:40.553Z,13.02
2022-10-17T17:15:08.303Z,12.87
2022-10-17T17:17:54.957Z,12.85
2022-10-17T17:20:23.483Z,12.77
2022-10-17T17:22:52.320Z,12.70
2022-10-17T17:25:20.002Z,12.55
2022-10-17T17:27:47.548Z,12.58
2022-10-17T17:30:15.825Z,12.57
2022-10-17T17:32:43.424Z,12.49
2022-10-17T17:35:10.968Z,12.36
2022-10-17T17:37:38.524Z,12.28
2022-10-17T17:40:12.394Z,12.15
2022-10-17T17:42:39.921Z,12.02
2022-10-17T17:45:08.021Z,11.86
2022-10-17T17:47:35.590Z,11.65
2022-10-17T17:50:03.658Z,11.69
2022-10-17T17:52:31.591Z,11.60
2022-10-17T17:54:59.461Z,11.55
2022-10-17T17:57:29.481Z,11.60
2022-10-17T17:59:57.097Z,11.41
2022-10-17T18:02:24.628Z,11.38
2022-10-17T18:04:52.134Z,11.42
2022-10-17T18:07:19.669Z,11.42
2022-10-17T18:09:49.166Z,11.35
2022-10-17T18:12:16.845Z,11.39
2022-10-17T18:14:44.310Z,11.32
2022-10-17T18:17:11.860Z,11.38
2022-10-17T18:19:39.622Z,11.27
2022-10-17T18:22:07.424Z,11.14
2022-10-17T18:24:36.291Z,11.10
2022-10-17T18:27:04.193Z,11.17
2022-10-17T18:29:32.776Z,11.22
2022-10-17T18:32:00.409Z,11.07
2022-10-17T18:34:27.948Z,10.98
2022-10-17T18:36:55.568Z,11.00
2022-10-17T18:39:23.273Z,11.08
2022-10-17T18:41:50.914Z,10.98
2022-10-17T18:44:18.531Z,11.00
2022-10-17T18:46:46.992Z,10.82
2022-10-17T18:49:18.973Z,10.88
2022-10-17T18:51:46.884Z,10.82
2022-10-17T18:54:20.454Z,10.92
2022-10-17T18:56:51.029Z,10.82
2022-10-17T18:59:19.693Z,10.72
2022-10-17T19:01:48.017Z,10.72
2022-10-17T19:04:15.867Z,10.65
2022-10-17T19:06:44.545Z,10.53
2022-10-17T19:09:13.666Z,10.61
2022-10-17T19:11:42.174Z,10.57
2022-10-17T19:14:15.032Z,10.64
2022-10-17T19:16:46.597Z,10.65
2022-10-17T19:19:16.205Z,10.46
2022-10-17T19:21:44.370Z,10.51
2022-10-17T19:24:17.833Z,10.47
2022-10-17T19:26:46.830Z,10.52
2022-10-17T19:29:15.984Z,10.40
2022-10-17T19:31:44.558Z,10.42
2022-10-17T19:34:13.213Z,10.41
2022-10-17T19:36:41.214Z,10.40
2022-10-17T19:39:15.876Z,10.31
2022-10-17T19:41:45.183Z,10.32
2022-10-17T19:44:13.192Z,10.31
2022-10-17T19:46:40.974Z,10.25
2022-10-17T19:49:08.484Z,10.18
2022-10-17T19:51:36.054Z,10.24
2022-10-17T19:54:04.025Z,10.25
2022-10-17T19:56:33.865Z,10.19
2022-10-17T19:59:01.541Z,10.27
2022-10-17T20:01:33.224Z,10.07
2022-10-17T20:04:00.955Z,10.07
2022-10-17T20:06:28.490Z,10.00
2022-10-17T20:08:56.632Z,9.93
2022-10-17T20:11:26.991Z,9.83
2022-10-17T20:13:55.808Z,9.78
2022-10-17T20:16:25.644Z,9.75
2022-10-17T20:18:55.644Z,9.61
2022-10-17T20:21:28.670Z,9.71
2022-10-17T20:23:56.305Z,9.61
2022-10-17T20:26:36.600Z,9.53
2022-10-17T20:29:10.914Z,9.45
2022-10-17T20:31:40.475Z,9.27
2022-10-17T20:34:11.374Z,9.38
2022-10-17T20:36:40.332Z,9.27
2022-10-17T20:39:09.788Z,9.39
2022-10-17T20:41:37.274Z,9.46
2022-10-17T20:44:06.809Z,9.23
2022-10-17T20:46:37.279Z,9.18
2022-10-17T20:49:08.819Z,9.32
2022-10-17T20:51:36.439Z,9.27
2022-10-17T20:54:05.000Z,9.36
2022-10-17T20:56:34.114Z,9.36
2022-10-17T20:59:04.683Z,9.44
2022-10-17T21:01:34.942Z,9.24
2022-10-17T21:04:26.931Z,9.42
2022-10-17T21:06:54.263Z,9.41
2022-10-17T21:09:22.354Z,9.31
2022-10-17T21:11:55.668Z,9.38
2022-10-17T21:14:33.740Z,9.38
2022-10-17T21:17:04.917Z,9.26
2022-10-17T21:19:32.905Z,9.18
2022-10-17T21:22:00.742Z,9.21
2022-10-17T21:24:28.384Z,9.19
2022-10-17T21:26:57.141Z,9.23
2022-10-17T21:29:24.798Z,9.19
2022-10-17T21:31:52.735Z,9.21
2022-10-17T21:34:23.919Z,9.09
2022-10-17T21:36:52.267Z,9.01
2022-10-17T21:39:20.399Z,9.13
2022-10-17T21:41:47.906Z,9.05
2022-10-17T21:44:20.959Z,9.00
2022-10-17T21:46:49.191Z,8.99
2022-10-17T21:49:21.819Z,9.04
2022-10-17T21:51:49.887Z,9.00
2022-10-17T21:54:19.140Z,8.93
2022-10-17T21:56:46.829Z,8.97
2022-10-17T21:59:14.409Z,9.07
2022-10-17T22:01:44.128Z,9.00
2022-10-17T22:04:14.830Z,8.97
2022-10-17T22:06:44.277Z,8.92
2022-10-17T22:09:18.409Z,9.01
2022-10-17T22:11:48.335Z,9.00
2022-10-17T22:14:18.588Z,8.98
2022-10-17T22:16:47.349Z,8.92
2022-10-17T22:19:18.490Z,8.75
2022-10-17T22:21:46.230Z,8.75
2022-10-17T22:24:15.420Z,8.73
2022-10-17T22:26:44.519Z,8.79
2022-10-17T22:29:12.612Z,8.78
2022-10-17T22:31:40.850Z,8.53
2022-10-17T22:34:11.545Z,8.54
2022-10-17T22:36:39.092Z,8.44
2022-10-17T22:39:07.359Z,8.40
2022-10-17T22:41:34.893Z,8.38
2022-10-17T22:44:02.503Z,8.42
2022-10-17T22:46:30.046Z,8.48
2022-10-17T22:48:57.711Z,8.38
2022-10-17T22:51:26.179Z,8.47
2022-10-17T22:53:53.735Z,8.52
2022-10-17T22:56:22.859Z,8.54
2022-10-17T22:58:50.906Z,8.46
2022-10-17T23:01:21.691Z,8.40
2022-10-17T23:03:50.207Z,8.43
2022-10-17T23:06:18.349Z,8.33
2022-10-17T23:08:46.184Z,8.35
2022-10-17T23:11:14.165Z,8.35
2022-10-17T23:13:41.724Z,8.33
2022-10-17T23:16:09.691Z,8.26
2022-10-17T23:18:38.310Z,8.25
2022-10-17T23:21:06.752Z,8.15
2022-10-17T23:23:34.880Z,8.28
2022-10-17T23:26:08.097Z,8.30
2022-10-17T23:28:36.093Z,8.23
2022-10-17T23:31:16.620Z,8.13
2022-10-17T23:33:45.484Z,8.17
2022-10-17T23:36:15.110Z,8.19
2022-10-17T23:38:44.344Z,8.12
2022-10-17T23:41:12.653Z,8.15
2022-10-17T23:43:40.499Z,8.12
2022-10-17T23:46:08.740Z,8.05
2022-10-17T23:48:38.426Z,7.98
2022-10-17T23:51:07.720Z,8.14
2022-10-17T23:53:36.504Z,8.11
2022-10-17T23:56:05.115Z,8.11
2022-10-17T23:58:33.272Z,8.02
